sensor_id;sensor_type;location;lat;lon;timestamp;temperature;humidity
36280;DHT22;22317;47.936;12.742;2023-04-19T00:01:50;8.10;61.40
36280;DHT22;22317;47.936;12.742;2023-04-19T00:04:15;8.10;61.60
36280;DHT22;22317;47.936;12.742;2023-04-19T00:06:41;8.00;61.60
36280;DHT22;22317;47.936;12.742;2023-04-19T00:09:07;8.10;61.60
36280;DHT22;22317;47.936;12.742;2023-04-19T00:11:33;8.10;61.60
36280;DHT22;22317;47.936;12.742;2023-04-19T00:13:59;8.10;61.60
36280;DHT22;22317;47.936;12.742;2023-04-19T00:16:25;8.10;61.70
36280;DHT22;22317;47.936;12.742;2023-04-19T00:18:50;8.10;61.90
36280;DHT22;22317;47.936;12.742;2023-04-19T00:21:16;8.10;61.70
36280;DHT22;22317;47.936;12.742;2023-04-19T00:23:42;8.10;61.60
36280;DHT22;22317;47.936;12.742;2023-04-19T00:26:08;8.10;61.60
36280;DHT22;22317;47.936;12.742;2023-04-19T00:28:36;8.10;61.50
36280;DHT22;22317;47.936;12.742;2023-04-19T00:31:02;8.00;61.60
36280;DHT22;22317;47.936;12.742;2023-04-19T00:33:29;8.00;62.40
36280;DHT22;22317;47.936;12.742;2023-04-19T00:35:56;8.00;62.40
36280;DHT22;22317;47.936;12.742;2023-04-19T00:38:21;8.00;61.70
36280;DHT22;22317;47.936;12.742;2023-04-19T00:40:47;8.00;61.70
36280;DHT22;22317;47.936;12.742;2023-04-19T00:43:19;8.00;61.80
36280;DHT22;22317;47.936;12.742;2023-04-19T00:45:47;8.10;61.90
36280;DHT22;22317;47.936;12.742;2023-04-19T00:48:22;8.10;61.80
36280;DHT22;22317;47.936;12.742;2023-04-19T00:50:48;8.10;61.70
36280;DHT22;22317;47.936;12.742;2023-04-19T00:53:15;8.10;61.80
36280;DHT22;22317;47.936;12.742;2023-04-19T00:55:41;8.10;61.80
36280;DHT22;22317;47.936;12.742;2023-04-19T00:58:09;8.00;61.80
36280;DHT22;22317;47.936;12.742;2023-04-19T01:00:36;8.00;61.70
36280;DHT22;22317;47.936;12.742;2023-04-19T01:03:01;8.00;61.80
36280;DHT22;22317;47.936;12.742;2023-04-19T01:05:28;8.00;61.90
36280;DHT22;22317;47.936;12.742;2023-04-19T01:07:54;8.00;61.90
36280;DHT22;22317;47.936;12.742;2023-04-19T01:10:20;7.90;61.90
36280;DHT22;22317;47.936;12.742;2023-04-19T01:12:49;7.90;62.00
36280;DHT22;22317;47.936;12.742;2023-04-19T01:15:14;7.90;62.10
36280;DHT22;22317;47.936;12.742;2023-04-19T01:17:40;7.90;62.20
36280;DHT22;22317;47.936;12.742;2023-04-19T01:20:07;7.90;62.20
36280;DHT22;22317;47.936;12.742;2023-04-19T01:22:36;7.90;62.30
36280;DHT22;22317;47.936;12.742;2023-04-19T01:25:05;7.90;62.30
36280;DHT22;22317;47.936;12.742;2023-04-19T01:27:31;7.90;62.20
36280;DHT22;22317;47.936;12.742;2023-04-19T01:29:57;7.90;62.20
36280;DHT22;22317;47.936;12.742;2023-04-19T01:32:25;7.90;62.30
36280;DHT22;22317;47.936;12.742;2023-04-19T01:35:10;8.00;62.40
36280;DHT22;22317;47.936;12.742;2023-04-19T01:37:45;7.90;62.40
36280;DHT22;22317;47.936;12.742;2023-04-19T01:40:11;7.90;62.30
36280;DHT22;22317;47.936;12.742;2023-04-19T01:42:37;7.90;62.30
36280;DHT22;22317;47.936;12.742;2023-04-19T01:45:03;7.90;62.40
36280;DHT22;22317;47.936;12.742;2023-04-19T01:47:29;7.90;62.40
36280;DHT22;22317;47.936;12.742;2023-04-19T01:49:55;7.90;62.30
36280;DHT22;22317;47.936;12.742;2023-04-19T01:52:20;7.90;62.40
36280;DHT22;22317;47.936;12.742;2023-04-19T01:54:47;7.90;62.40
36280;DHT22;22317;47.936;12.742;2023-04-19T01:57:14;7.90;62.50
36280;DHT22;22317;47.936;12.742;2023-04-19T01:59:40;7.90;63.20
36280;DHT22;22317;47.936;12.742;2023-04-19T02:02:06;8.00;62.50
36280;DHT22;22317;47.936;12.742;2023-04-19T02:04:33;8.00;62.60
36280;DHT22;22317;47.936;12.742;2023-04-19T02:06:59;8.00;62.60
36280;DHT22;22317;47.936;12.742;2023-04-19T02:09:27;8.00;62.60
36280;DHT22;22317;47.936;12.742;2023-04-19T02:11:53;8.00;62.60
36280;DHT22;22317;47.936;12.742;2023-04-19T02:14:20;8.00;62.60
36280;DHT22;22317;47.936;12.742;2023-04-19T02:16:46;8.00;62.60
36280;DHT22;22317;47.936;12.742;2023-04-19T02:19:12;8.10;62.60
36280;DHT22;22317;47.936;12.742;2023-04-19T02:21:38;8.00;62.60
36280;DHT22;22317;47.936;12.742;2023-04-19T02:24:04;8.00;62.50
36280;DHT22;22317;47.936;12.742;2023-04-19T02:26:30;7.90;62.40
36280;DHT22;22317;47.936;12.742;2023-04-19T02:28:56;7.90;62.50
36280;DHT22;22317;47.936;12.742;2023-04-19T02:31:22;7.90;62.60
36280;DHT22;22317;47.936;12.742;2023-04-19T02:33:47;7.90;62.50
36280;DHT22;22317;47.936;12.742;2023-04-19T02:36:13;7.90;62.60
36280;DHT22;22317;47.936;12.742;2023-04-19T02:38:39;7.90;62.50
36280;DHT22;22317;47.936;12.742;2023-04-19T02:41:05;7.80;62.50
36280;DHT22;22317;47.936;12.742;2023-04-19T02:43:30;7.80;62.60
36280;DHT22;22317;47.936;12.742;2023-04-19T02:45:56;7.80;62.70
36280;DHT22;22317;47.936;12.742;2023-04-19T02:48:22;7.80;62.80
36280;DHT22;22317;47.936;12.742;2023-04-19T02:50:48;7.80;62.80
36280;DHT22;22317;47.936;12.742;2023-04-19T02:53:14;7.80;62.80
36280;DHT22;22317;47.936;12.742;2023-04-19T02:55:40;7.90;62.90
36280;DHT22;22317;47.936;12.742;2023-04-19T02:58:12;7.80;62.90
36280;DHT22;22317;47.936;12.742;2023-04-19T03:00:44;7.90;63.00
36280;DHT22;22317;47.936;12.742;2023-04-19T03:03:13;7.90;62.90
36280;DHT22;22317;47.936;12.742;2023-04-19T03:05:39;7.90;62.90
36280;DHT22;22317;47.936;12.742;2023-04-19T03:08:05;7.90;62.90
36280;DHT22;22317;47.936;12.742;2023-04-19T03:10:31;7.90;62.80
36280;DHT22;22317;47.936;12.742;2023-04-19T03:12:56;7.90;62.70
36280;DHT22;22317;47.936;12.742;2023-04-19T03:15:22;7.80;62.70
36280;DHT22;22317;47.936;12.742;2023-04-19T03:17:48;7.80;62.70
36280;DHT22;22317;47.936;12.742;2023-04-19T03:20:14;7.80;62.90
36280;DHT22;22317;47.936;12.742;2023-04-19T03:22:41;7.80;62.90
36280;DHT22;22317;47.936;12.742;2023-04-19T03:25:08;7.80;63.00
36280;DHT22;22317;47.936;12.742;2023-04-19T03:27:37;7.80;63.00
36280;DHT22;22317;47.936;12.742;2023-04-19T03:30:07;7.60;62.80
36280;DHT22;22317;47.936;12.742;2023-04-19T03:32:33;7.80;63.00
36280;DHT22;22317;47.936;12.742;2023-04-19T03:34:59;7.80;63.00
36280;DHT22;22317;47.936;12.742;2023-04-19T03:37:25;7.80;63.00
36280;DHT22;22317;47.936;12.742;2023-04-19T03:39:52;7.70;63.00
36280;DHT22;22317;47.936;12.742;2023-04-19T03:42:24;7.70;63.00
36280;DHT22;22317;47.936;12.742;2023-04-19T03:44:55;7.70;63.10
36280;DHT22;22317;47.936;12.742;2023-04-19T03:47:22;7.70;63.00
36280;DHT22;22317;47.936;12.742;2023-04-19T03:49:49;7.70;63.10
36280;DHT22;22317;47.936;12.742;2023-04-19T03:52:16;7.80;63.30
36280;DHT22;22317;47.936;12.742;2023-04-19T03:54:43;7.70;63.30
36280;DHT22;22317;47.936;12.742;2023-04-19T03:57:21;7.70;63.30
36280;DHT22;22317;47.936;12.742;2023-04-19T03:59:48;7.70;63.40
36280;DHT22;22317;47.936;12.742;2023-04-19T04:02:14;7.70;63.30
36280;DHT22;22317;47.936;12.742;2023-04-19T04:04:39;7.70;63.40
36280;DHT22;22317;47.936;12.742;2023-04-19T04:07:06;7.70;63.40
36280;DHT22;22317;47.936;12.742;2023-04-19T04:09:32;7.70;63.40
36280;DHT22;22317;47.936;12.742;2023-04-19T04:11:58;7.70;63.40
36280;DHT22;22317;47.936;12.742;2023-04-19T04:14:24;7.70;63.50
36280;DHT22;22317;47.936;12.742;2023-04-19T04:16:50;7.70;63.50
36280;DHT22;22317;47.936;12.742;2023-04-19T04:19:16;7.70;63.70
36280;DHT22;22317;47.936;12.742;2023-04-19T04:21:43;7.10;63.00
36280;DHT22;22317;47.936;12.742;2023-04-19T04:24:09;7.70;63.40
36280;DHT22;22317;47.936;12.742;2023-04-19T04:26:45;7.70;63.40
36280;DHT22;22317;47.936;12.742;2023-04-19T04:29:23;7.70;63.40
36280;DHT22;22317;47.936;12.742;2023-04-19T04:31:51;7.70;63.50
36280;DHT22;22317;47.936;12.742;2023-04-19T04:34:21;7.70;63.50
36280;DHT22;22317;47.936;12.742;2023-04-19T04:36:52;7.70;63.50
36280;DHT22;22317;47.936;12.742;2023-04-19T04:39:20;7.70;63.50
36280;DHT22;22317;47.936;12.742;2023-04-19T04:41:47;7.70;63.50
36280;DHT22;22317;47.936;12.742;2023-04-19T04:44:14;7.80;63.50
36280;DHT22;22317;47.936;12.742;2023-04-19T04:46:42;7.80;63.50
36280;DHT22;22317;47.936;12.742;2023-04-19T04:49:10;7.80;63.40
36280;DHT22;22317;47.936;12.742;2023-04-19T04:51:39;7.80;63.40
36280;DHT22;22317;47.936;12.742;2023-04-19T04:54:05;7.80;63.50
36280;DHT22;22317;47.936;12.742;2023-04-19T04:56:31;7.80;63.40
36280;DHT22;22317;47.936;12.742;2023-04-19T04:58:57;7.80;63.40
36280;DHT22;22317;47.936;12.742;2023-04-19T05:01:29;7.70;63.40
36280;DHT22;22317;47.936;12.742;2023-04-19T05:03:55;7.70;63.40
36280;DHT22;22317;47.936;12.742;2023-04-19T05:06:21;7.70;63.50
36280;DHT22;22317;47.936;12.742;2023-04-19T05:08:46;7.70;63.50
36280;DHT22;22317;47.936;12.742;2023-04-19T05:11:21;7.70;63.60
36280;DHT22;22317;47.936;12.742;2023-04-19T05:13:47;7.60;63.50
36280;DHT22;22317;47.936;12.742;2023-04-19T05:16:12;7.60;63.60
36280;DHT22;22317;47.936;12.742;2023-04-19T05:18:41;7.70;63.60
36280;DHT22;22317;47.936;12.742;2023-04-19T05:21:07;7.60;63.60
36280;DHT22;22317;47.936;12.742;2023-04-19T05:23:36;7.60;63.80
36280;DHT22;22317;47.936;12.742;2023-04-19T05:26:02;7.60;63.90
36280;DHT22;22317;47.936;12.742;2023-04-19T05:28:28;7.60;63.90
36280;DHT22;22317;47.936;12.742;2023-04-19T05:31:01;7.70;64.00
36280;DHT22;22317;47.936;12.742;2023-04-19T05:33:32;7.70;63.90
36280;DHT22;22317;47.936;12.742;2023-04-19T05:35:59;7.70;63.90
36280;DHT22;22317;47.936;12.742;2023-04-19T05:38:24;7.70;63.70
36280;DHT22;22317;47.936;12.742;2023-04-19T05:40:54;7.70;63.80
36280;DHT22;22317;47.936;12.742;2023-04-19T05:43:20;7.80;63.90
36280;DHT22;22317;47.936;12.742;2023-04-19T05:45:46;7.80;63.90
36280;DHT22;22317;47.936;12.742;2023-04-19T05:48:12;7.80;63.80
36280;DHT22;22317;47.936;12.742;2023-04-19T05:50:52;7.90;63.80
36280;DHT22;22317;47.936;12.742;2023-04-19T05:53:44;7.90;63.70
36280;DHT22;22317;47.936;12.742;2023-04-19T05:56:10;7.90;63.60
36280;DHT22;22317;47.936;12.742;2023-04-19T05:58:36;7.90;63.60
36280;DHT22;22317;47.936;12.742;2023-04-19T06:01:02;7.90;63.70
36280;DHT22;22317;47.936;12.742;2023-04-19T06:03:29;7.90;63.70
36280;DHT22;22317;47.936;12.742;2023-04-19T06:05:55;7.90;63.70
36280;DHT22;22317;47.936;12.742;2023-04-19T06:08:22;7.90;63.70
36280;DHT22;22317;47.936;12.742;2023-04-19T06:10:48;7.90;63.80
36280;DHT22;22317;47.936;12.742;2023-04-19T06:13:14;7.90;63.70
36280;DHT22;22317;47.936;12.742;2023-04-19T06:15:41;7.90;63.70
36280;DHT22;22317;47.936;12.742;2023-04-19T06:18:07;8.00;63.80
36280;DHT22;22317;47.936;12.742;2023-04-19T06:20:36;8.00;63.80
36280;DHT22;22317;47.936;12.742;2023-04-19T06:23:02;8.00;63.80
36280;DHT22;22317;47.936;12.742;2023-04-19T06:25:28;8.10;63.90
36280;DHT22;22317;47.936;12.742;2023-04-19T06:27:54;8.10;63.90
36280;DHT22;22317;47.936;12.742;2023-04-19T06:30:19;8.10;63.80
36280;DHT22;22317;47.936;12.742;2023-04-19T06:32:45;8.20;63.70
36280;DHT22;22317;47.936;12.742;2023-04-19T06:35:11;8.20;63.60
36280;DHT22;22317;47.936;12.742;2023-04-19T06:37:37;8.20;63.60
36280;DHT22;22317;47.936;12.742;2023-04-19T06:40:03;8.30;63.70
36280;DHT22;22317;47.936;12.742;2023-04-19T06:42:36;8.40;63.70
36280;DHT22;22317;47.936;12.742;2023-04-19T06:45:02;8.40;63.60
36280;DHT22;22317;47.936;12.742;2023-04-19T06:47:28;8.40;63.50
36280;DHT22;22317;47.936;12.742;2023-04-19T06:49:54;8.50;63.40
36280;DHT22;22317;47.936;12.742;2023-04-19T06:52:20;8.50;63.30
36280;DHT22;22317;47.936;12.742;2023-04-19T06:54:50;8.60;63.30
36280;DHT22;22317;47.936;12.742;2023-04-19T06:57:17;8.60;63.20
36280;DHT22;22317;47.936;12.742;2023-04-19T06:59:43;8.70;63.20
36280;DHT22;22317;47.936;12.742;2023-04-19T07:02:08;8.60;62.90
36280;DHT22;22317;47.936;12.742;2023-04-19T07:04:35;8.70;62.90
36280;DHT22;22317;47.936;12.742;2023-04-19T07:07:01;8.60;62.90
36280;DHT22;22317;47.936;12.742;2023-04-19T07:09:27;8.70;63.10
36280;DHT22;22317;47.936;12.742;2023-04-19T07:11:53;8.80;63.20
36280;DHT22;22317;47.936;12.742;2023-04-19T07:14:19;8.80;62.90
36280;DHT22;22317;47.936;12.742;2023-04-19T07:16:46;8.90;62.80
36280;DHT22;22317;47.936;12.742;2023-04-19T07:19:12;8.90;62.80
36280;DHT22;22317;47.936;12.742;2023-04-19T07:21:38;9.00;62.90
36280;DHT22;22317;47.936;12.742;2023-04-19T07:24:05;9.00;63.40
36280;DHT22;22317;47.936;12.742;2023-04-19T07:26:31;9.10;62.80
36280;DHT22;22317;47.936;12.742;2023-04-19T07:28:58;9.20;62.80
36280;DHT22;22317;47.936;12.742;2023-04-19T07:31:24;9.20;62.60
36280;DHT22;22317;47.936;12.742;2023-04-19T07:33:50;9.30;62.30
36280;DHT22;22317;47.936;12.742;2023-04-19T07:36:17;9.40;62.10
36280;DHT22;22317;47.936;12.742;2023-04-19T07:38:43;9.50;61.90
36280;DHT22;22317;47.936;12.742;2023-04-19T07:41:08;9.50;61.60
36280;DHT22;22317;47.936;12.742;2023-04-19T07:43:35;9.50;61.40
36280;DHT22;22317;47.936;12.742;2023-04-19T07:46:01;9.60;61.40
36280;DHT22;22317;47.936;12.742;2023-04-19T07:48:27;9.60;61.50
36280;DHT22;22317;47.936;12.742;2023-04-19T07:50:53;9.70;61.10
36280;DHT22;22317;47.936;12.742;2023-04-19T07:53:19;9.80;60.60
36280;DHT22;22317;47.936;12.742;2023-04-19T07:55:45;9.80;60.50
36280;DHT22;22317;47.936;12.742;2023-04-19T07:58:10;9.90;60.30
36280;DHT22;22317;47.936;12.742;2023-04-19T08:00:36;10.00;60.30
36280;DHT22;22317;47.936;12.742;2023-04-19T08:03:02;10.20;60.20
36280;DHT22;22317;47.936;12.742;2023-04-19T08:05:29;10.20;60.10
36280;DHT22;22317;47.936;12.742;2023-04-19T08:07:55;10.30;59.70
36280;DHT22;22317;47.936;12.742;2023-04-19T08:10:21;10.40;59.40
36280;DHT22;22317;47.936;12.742;2023-04-19T08:12:48;10.40;59.00
36280;DHT22;22317;47.936;12.742;2023-04-19T08:15:15;10.40;58.70
36280;DHT22;22317;47.936;12.742;2023-04-19T08:17:41;10.40;58.60
36280;DHT22;22317;47.936;12.742;2023-04-19T08:20:10;10.40;58.50
36280;DHT22;22317;47.936;12.742;2023-04-19T08:22:37;10.30;58.40
36280;DHT22;22317;47.936;12.742;2023-04-19T08:25:04;10.40;58.50
36280;DHT22;22317;47.936;12.742;2023-04-19T08:27:31;10.40;58.40
36280;DHT22;22317;47.936;12.742;2023-04-19T08:29:56;10.40;58.40
36280;DHT22;22317;47.936;12.742;2023-04-19T08:32:22;10.40;58.30
36280;DHT22;22317;47.936;12.742;2023-04-19T08:34:48;10.40;58.30
36280;DHT22;22317;47.936;12.742;2023-04-19T08:37:14;10.50;58.40
36280;DHT22;22317;47.936;12.742;2023-04-19T08:39:40;10.50;58.20
36280;DHT22;22317;47.936;12.742;2023-04-19T08:42:07;10.60;57.90
36280;DHT22;22317;47.936;12.742;2023-04-19T08:44:35;10.50;57.70
36280;DHT22;22317;47.936;12.742;2023-04-19T08:47:03;10.60;57.90
36280;DHT22;22317;47.936;12.742;2023-04-19T08:49:30;10.60;57.80
36280;DHT22;22317;47.936;12.742;2023-04-19T08:51:59;10.60;57.60
36280;DHT22;22317;47.936;12.742;2023-04-19T08:54:28;10.60;57.60
36280;DHT22;22317;47.936;12.742;2023-04-19T08:56:55;10.50;57.30
36280;DHT22;22317;47.936;12.742;2023-04-19T08:59:23;10.50;57.40
36280;DHT22;22317;47.936;12.742;2023-04-19T09:01:48;10.50;57.50
36280;DHT22;22317;47.936;12.742;2023-04-19T09:04:14;10.60;57.40
36280;DHT22;22317;47.936;12.742;2023-04-19T09:06:40;10.60;57.20
36280;DHT22;22317;47.936;12.742;2023-04-19T09:09:21;10.60;57.10
36280;DHT22;22317;47.936;12.742;2023-04-19T09:11:47;10.60;57.00
36280;DHT22;22317;47.936;12.742;2023-04-19T09:14:15;10.60;56.90
36280;DHT22;22317;47.936;12.742;2023-04-19T09:16:41;10.60;57.00
36280;DHT22;22317;47.936;12.742;2023-04-19T09:19:08;10.60;57.20
36280;DHT22;22317;47.936;12.742;2023-04-19T09:21:34;10.60;57.20
36280;DHT22;22317;47.936;12.742;2023-04-19T09:24:01;10.60;56.90
36280;DHT22;22317;47.936;12.742;2023-04-19T09:26:27;10.60;57.00
36280;DHT22;22317;47.936;12.742;2023-04-19T09:28:56;10.50;56.80
36280;DHT22;22317;47.936;12.742;2023-04-19T09:31:23;10.50;56.70
36280;DHT22;22317;47.936;12.742;2023-04-19T09:33:50;10.40;56.70
36280;DHT22;22317;47.936;12.742;2023-04-19T09:36:31;10.40;56.80
36280;DHT22;22317;47.936;12.742;2023-04-19T09:38:57;10.40;56.80
36280;DHT22;22317;47.936;12.742;2023-04-19T09:41:24;10.40;57.00
36280;DHT22;22317;47.936;12.742;2023-04-19T09:43:51;10.50;57.20
36280;DHT22;22317;47.936;12.742;2023-04-19T09:46:34;10.50;57.20
36280;DHT22;22317;47.936;12.742;2023-04-19T09:49:30;10.60;57.20
36280;DHT22;22317;47.936;12.742;2023-04-19T09:51:56;10.80;57.00
36280;DHT22;22317;47.936;12.742;2023-04-19T09:54:23;10.80;56.90
36280;DHT22;22317;47.936;12.742;2023-04-19T09:56:50;11.00;57.00
36280;DHT22;22317;47.936;12.742;2023-04-19T09:59:17;11.10;56.60
36280;DHT22;22317;47.936;12.742;2023-04-19T10:01:52;11.20;56.30
36280;DHT22;22317;47.936;12.742;2023-04-19T10:04:19;11.20;56.10
36280;DHT22;22317;47.936;12.742;2023-04-19T10:06:49;11.20;55.70
36280;DHT22;22317;47.936;12.742;2023-04-19T10:09:17;11.10;55.50
36280;DHT22;22317;47.936;12.742;2023-04-19T10:11:51;11.10;55.60
36280;DHT22;22317;47.936;12.742;2023-04-19T10:14:24;11.20;55.80
36280;DHT22;22317;47.936;12.742;2023-04-19T10:16:52;11.20;55.90
36280;DHT22;22317;47.936;12.742;2023-04-19T10:19:20;11.40;55.90
36280;DHT22;22317;47.936;12.742;2023-04-19T10:21:48;11.50;55.70
36280;DHT22;22317;47.936;12.742;2023-04-19T10:24:15;11.60;55.20
36280;DHT22;22317;47.936;12.742;2023-04-19T10:27:08;11.60;54.90
36280;DHT22;22317;47.936;12.742;2023-04-19T10:30:01;11.60;54.50
36280;DHT22;22317;47.936;12.742;2023-04-19T10:32:41;11.50;54.30
36280;DHT22;22317;47.936;12.742;2023-04-19T10:37:37;11.30;54.80
36280;DHT22;22317;47.936;12.742;2023-04-19T10:40:04;11.20;54.20
36280;DHT22;22317;47.936;12.742;2023-04-19T10:45:35;11.00;54.70
36280;DHT22;22317;47.936;12.742;2023-04-19T10:48:02;10.90;55.00
36280;DHT22;22317;47.936;12.742;2023-04-19T10:50:29;10.90;55.40
36280;DHT22;22317;47.936;12.742;2023-04-19T10:52:55;10.90;55.50
36280;DHT22;22317;47.936;12.742;2023-04-19T10:55:20;11.00;55.90
36280;DHT22;22317;47.936;12.742;2023-04-19T10:58:09;11.00;56.10
36280;DHT22;22317;47.936;12.742;2023-04-19T11:00:35;11.10;55.90
36280;DHT22;22317;47.936;12.742;2023-04-19T11:06:18;10.90;55.60
36280;DHT22;22317;47.936;12.742;2023-04-19T11:08:46;10.80;55.70
36280;DHT22;22317;47.936;12.742;2023-04-19T11:11:12;10.80;55.70
36280;DHT22;22317;47.936;12.742;2023-04-19T11:13:42;10.70;55.70
36280;DHT22;22317;47.936;12.742;2023-04-19T11:16:08;10.70;56.00
36280;DHT22;22317;47.936;12.742;2023-04-19T11:18:34;10.80;56.40
36280;DHT22;22317;47.936;12.742;2023-04-19T11:20:59;10.80;56.40
36280;DHT22;22317;47.936;12.742;2023-04-19T11:23:26;10.90;56.60
36280;DHT22;22317;47.936;12.742;2023-04-19T11:25:52;11.00;56.60
36280;DHT22;22317;47.936;12.742;2023-04-19T11:28:18;11.20;56.50
36280;DHT22;22317;47.936;12.742;2023-04-19T11:30:46;11.40;56.30
36280;DHT22;22317;47.936;12.742;2023-04-19T11:33:12;11.50;56.00
36280;DHT22;22317;47.936;12.742;2023-04-19T11:35:38;11.60;55.70
36280;DHT22;22317;47.936;12.742;2023-04-19T11:38:06;11.60;55.60
36280;DHT22;22317;47.936;12.742;2023-04-19T11:40:32;11.70;55.60
36280;DHT22;22317;47.936;12.742;2023-04-19T11:42:59;11.80;55.40
36280;DHT22;22317;47.936;12.742;2023-04-19T11:45:26;11.80;55.30
36280;DHT22;22317;47.936;12.742;2023-04-19T11:47:53;11.80;55.30
36280;DHT22;22317;47.936;12.742;2023-04-19T11:53:01;11.90;56.10
36280;DHT22;22317;47.936;12.742;2023-04-19T11:55:34;11.90;55.90
36280;DHT22;22317;47.936;12.742;2023-04-19T11:57:59;11.90;55.30
36280;DHT22;22317;47.936;12.742;2023-04-19T12:00:26;11.80;54.80
36280;DHT22;22317;47.936;12.742;2023-04-19T12:02:53;11.50;54.40
36280;DHT22;22317;47.936;12.742;2023-04-19T12:05:19;11.30;54.50
36280;DHT22;22317;47.936;12.742;2023-04-19T12:08:04;11.10;54.70
36280;DHT22;22317;47.936;12.742;2023-04-19T12:10:31;10.90;55.00
36280;DHT22;22317;47.936;12.742;2023-04-19T12:12:57;10.80;55.00
36280;DHT22;22317;47.936;12.742;2023-04-19T12:15:42;10.60;54.90
36280;DHT22;22317;47.936;12.742;2023-04-19T12:18:08;10.40;55.10
36280;DHT22;22317;47.936;12.742;2023-04-19T12:20:36;10.20;55.30
36280;DHT22;22317;47.936;12.742;2023-04-19T12:23:02;10.00;55.40
36280;DHT22;22317;47.936;12.742;2023-04-19T12:25:33;9.90;55.80
36280;DHT22;22317;47.936;12.742;2023-04-19T12:28:01;9.80;56.30
36280;DHT22;22317;47.936;12.742;2023-04-19T12:30:27;9.70;56.40
36280;DHT22;22317;47.936;12.742;2023-04-19T12:32:56;9.70;56.60
36280;DHT22;22317;47.936;12.742;2023-04-19T12:35:24;9.70;56.60
36280;DHT22;22317;47.936;12.742;2023-04-19T12:37:52;9.60;56.50
36280;DHT22;22317;47.936;12.742;2023-04-19T12:40:18;9.40;56.50
36280;DHT22;22317;47.936;12.742;2023-04-19T12:42:43;9.30;56.70
36280;DHT22;22317;47.936;12.742;2023-04-19T12:45:11;9.30;57.10
36280;DHT22;22317;47.936;12.742;2023-04-19T12:47:37;9.20;57.30
36280;DHT22;22317;47.936;12.742;2023-04-19T12:50:03;9.20;57.40
36280;DHT22;22317;47.936;12.742;2023-04-19T12:52:29;9.20;57.30
36280;DHT22;22317;47.936;12.742;2023-04-19T12:54:55;9.10;57.30
36280;DHT22;22317;47.936;12.742;2023-04-19T12:57:21;9.10;57.70
36280;DHT22;22317;47.936;12.742;2023-04-19T12:59:46;9.10;58.00
36280;DHT22;22317;47.936;12.742;2023-04-19T13:02:12;9.10;58.10
36280;DHT22;22317;47.936;12.742;2023-04-19T13:04:38;9.10;58.30
36280;DHT22;22317;47.936;12.742;2023-04-19T13:07:03;9.10;58.30
36280;DHT22;22317;47.936;12.742;2023-04-19T13:09:29;9.00;58.10
36280;DHT22;22317;47.936;12.742;2023-04-19T13:11:55;9.00;58.30
36280;DHT22;22317;47.936;12.742;2023-04-19T13:14:22;9.00;58.60
36280;DHT22;22317;47.936;12.742;2023-04-19T13:16:48;9.00;58.60
36280;DHT22;22317;47.936;12.742;2023-04-19T13:19:14;9.00;58.80
36280;DHT22;22317;47.936;12.742;2023-04-19T13:21:40;9.00;58.80
36280;DHT22;22317;47.936;12.742;2023-04-19T13:24:06;8.90;59.30
36280;DHT22;22317;47.936;12.742;2023-04-19T13:26:33;8.90;59.00
36280;DHT22;22317;47.936;12.742;2023-04-19T13:28:59;8.90;59.10
36280;DHT22;22317;47.936;12.742;2023-04-19T13:31:25;9.00;59.30
36280;DHT22;22317;47.936;12.742;2023-04-19T13:33:52;8.90;59.20
36280;DHT22;22317;47.936;12.742;2023-04-19T13:36:18;8.90;59.20
36280;DHT22;22317;47.936;12.742;2023-04-19T13:38:44;8.90;59.20
36280;DHT22;22317;47.936;12.742;2023-04-19T13:41:10;8.90;59.40
36280;DHT22;22317;47.936;12.742;2023-04-19T13:43:36;8.90;59.30
36280;DHT22;22317;47.936;12.742;2023-04-19T13:46:01;8.80;59.10
36280;DHT22;22317;47.936;12.742;2023-04-19T13:48:29;8.70;58.80
36280;DHT22;22317;47.936;12.742;2023-04-19T13:50:55;8.60;58.70
36280;DHT22;22317;47.936;12.742;2023-04-19T13:53:22;8.50;58.70
36280;DHT22;22317;47.936;12.742;2023-04-19T13:55:49;8.40;58.80
36280;DHT22;22317;47.936;12.742;2023-04-19T13:58:15;8.30;58.90
36280;DHT22;22317;47.936;12.742;2023-04-19T14:00:40;8.30;59.00
36280;DHT22;22317;47.936;12.742;2023-04-19T14:03:06;8.10;58.90
36280;DHT22;22317;47.936;12.742;2023-04-19T14:05:32;8.10;59.10
36280;DHT22;22317;47.936;12.742;2023-04-19T14:07:58;8.00;59.10
36280;DHT22;22317;47.936;12.742;2023-04-19T14:10:24;8.00;59.20
36280;DHT22;22317;47.936;12.742;2023-04-19T14:12:50;7.90;59.20
36280;DHT22;22317;47.936;12.742;2023-04-19T14:15:20;7.90;59.30
36280;DHT22;22317;47.936;12.742;2023-04-19T14:17:48;7.90;59.40
36280;DHT22;22317;47.936;12.742;2023-04-19T14:20:14;7.80;59.40
36280;DHT22;22317;47.936;12.742;2023-04-19T14:22:40;7.80;59.40
36280;DHT22;22317;47.936;12.742;2023-04-19T14:25:06;7.70;59.30
36280;DHT22;22317;47.936;12.742;2023-04-19T14:27:32;7.70;59.30
36280;DHT22;22317;47.936;12.742;2023-04-19T14:29:58;7.60;59.40
36280;DHT22;22317;47.936;12.742;2023-04-19T14:32:24;7.50;59.40
36280;DHT22;22317;47.936;12.742;2023-04-19T14:34:50;7.50;59.60
36280;DHT22;22317;47.936;12.742;2023-04-19T14:37:17;7.50;59.60
36280;DHT22;22317;47.936;12.742;2023-04-19T14:39:46;7.50;59.60
36280;DHT22;22317;47.936;12.742;2023-04-19T14:42:12;7.40;59.70
36280;DHT22;22317;47.936;12.742;2023-04-19T14:44:38;7.40;59.70
36280;DHT22;22317;47.936;12.742;2023-04-19T14:47:04;7.40;59.90
36280;DHT22;22317;47.936;12.742;2023-04-19T14:49:30;7.40;60.00
36280;DHT22;22317;47.936;12.742;2023-04-19T14:51:55;7.40;60.10
36280;DHT22;22317;47.936;12.742;2023-04-19T14:54:21;7.40;60.00
36280;DHT22;22317;47.936;12.742;2023-04-19T14:56:47;7.40;60.80
36280;DHT22;22317;47.936;12.742;2023-04-19T14:59:12;7.40;60.20
36280;DHT22;22317;47.936;12.742;2023-04-19T15:01:38;7.40;60.30
36280;DHT22;22317;47.936;12.742;2023-04-19T15:04:04;7.40;60.30
36280;DHT22;22317;47.936;12.742;2023-04-19T15:06:30;7.30;60.30
36280;DHT22;22317;47.936;12.742;2023-04-19T15:08:56;7.40;60.40
36280;DHT22;22317;47.936;12.742;2023-04-19T15:11:22;7.40;60.40
36280;DHT22;22317;47.936;12.742;2023-04-19T15:13:48;7.40;60.30
36280;DHT22;22317;47.936;12.742;2023-04-19T15:16:14;7.30;60.20
36280;DHT22;22317;47.936;12.742;2023-04-19T15:18:40;7.30;59.90
36280;DHT22;22317;47.936;12.742;2023-04-19T15:21:06;7.20;59.80
36280;DHT22;22317;47.936;12.742;2023-04-19T15:23:31;7.10;59.60
36280;DHT22;22317;47.936;12.742;2023-04-19T15:25:57;7.10;59.60
36280;DHT22;22317;47.936;12.742;2023-04-19T15:28:23;7.00;59.60
36280;DHT22;22317;47.936;12.742;2023-04-19T15:31:01;7.00;59.60
36280;DHT22;22317;47.936;12.742;2023-04-19T15:33:28;6.90;59.50
36280;DHT22;22317;47.936;12.742;2023-04-19T15:35:54;6.80;59.40
36280;DHT22;22317;47.936;12.742;2023-04-19T15:38:25;6.70;59.50
36280;DHT22;22317;47.936;12.742;2023-04-19T15:40:53;6.70;59.70